Garden City South, New York
Current Conditions -  °F | °C
As of 11:51 PM on Sunday 19 Oct 2014 (Local Time) from KJFK Reporting Station
Broken Clouds Broken Clouds  
Wind Chill: 40°   Ceiling: 24000
Heat Index: 45°   Visibility: 10mi
Dew Point: 26°   Wind: 10mph
Humidity: 48%   Direction: 320°NW
Pressure: 30.07"   Gusts: NA
Location:  40.727°N, 73.6328°W
Report Text: KJFK 200351Z 32009KT 10SM BKN240 07/M03 A3007 RMK AO2 SLP181 T00721033 $
Loading
Personal Weather Stations






























Interactive Weather Map
Tropical Storm Tracking
New forecast layout! Learn more

10-Day Weather Forecast

Advertisements
Track Severe Weather on mobile